createdAt,value
2022-10-15T00:00:30.167Z,1.15
2022-10-15T00:01:32.467Z,1.38
2022-10-15T00:02:34.870Z,1.50
2022-10-15T00:03:39.803Z,1.42
2022-10-15T00:04:42.151Z,1.52
2022-10-15T00:05:44.596Z,1.38
2022-10-15T00:06:46.946Z,1.63
2022-10-15T00:07:49.523Z,1.48
2022-10-15T00:08:51.841Z,1.70
2022-10-15T00:09:54.126Z,1.33
2022-10-15T00:11:01.736Z,1.20
2022-10-15T00:12:04.573Z,1.60
2022-10-15T00:13:07.265Z,1.35
2022-10-15T00:14:09.569Z,1.67
2022-10-15T00:15:12.790Z,1.23
2022-10-15T00:16:22.761Z,1.40
2022-10-15T00:17:25.420Z,1.35
2022-10-15T00:18:28.451Z,1.70
2022-10-15T00:19:30.769Z,1.40
2022-10-15T00:20:33.065Z,1.55
2022-10-15T00:21:35.326Z,1.45
2022-10-15T00:22:37.677Z,1.65
2022-10-15T00:23:40.167Z,1.35
2022-10-15T00:24:42.514Z,1.20
2022-10-15T00:25:44.807Z,1.20
2022-10-15T00:26:47.095Z,1.48
2022-10-15T00:27:49.355Z,1.13
2022-10-15T00:28:53.675Z,1.48
2022-10-15T00:30:00.344Z,1.30
2022-10-15T00:31:10.730Z,1.50
2022-10-15T00:32:13.047Z,1.38
2022-10-15T00:33:15.306Z,1.20
2022-10-15T00:34:17.592Z,1.15
2022-10-15T00:35:19.889Z,1.35
2022-10-15T00:36:31.007Z,1.40
2022-10-15T00:37:33.327Z,1.50
2022-10-15T00:38:36.404Z,1.20
2022-10-15T00:39:38.695Z,1.35
2022-10-15T00:40:41.467Z,1.48
2022-10-15T00:41:44.992Z,1.33
2022-10-15T00:42:47.321Z,1.27
2022-10-15T00:43:50.909Z,1.55
2022-10-15T00:44:56.942Z,1.25
2022-10-15T00:45:59.219Z,1.52
2022-10-15T00:47:14.505Z,1.08
2022-10-15T00:48:17.344Z,1.30
2022-10-15T00:49:33.450Z,1.20
2022-10-15T00:50:36.213Z,1.20
2022-10-15T00:51:44.691Z,1.27
2022-10-15T00:52:58.682Z,1.25
2022-10-15T00:54:01.793Z,1.13
2022-10-15T00:55:13.224Z,1.70
2022-10-15T00:56:18.551Z,1.42
2022-10-15T00:57:21.002Z,1.48
2022-10-15T00:58:28.302Z,1.13
2022-10-15T00:59:32.573Z,1.30
2022-10-15T01:00:35.032Z,1.73
2022-10-15T01:01:37.674Z,1.45
2022-10-15T01:02:40.218Z,16.83
2022-10-15T01:03:42.979Z,55.58
2022-10-15T01:04:46.457Z,27.73
2022-10-15T01:05:51.995Z,14.45
2022-10-15T01:06:54.373Z,8.70
2022-10-15T01:07:56.749Z,6.18
2022-10-15T01:09:00.943Z,4.57
2022-10-15T01:10:05.430Z,3.70
2022-10-15T01:11:33.952Z,3.05
2022-10-15T01:12:49.011Z,2.63
2022-10-15T01:14:12.964Z,1.88
2022-10-15T01:15:27.170Z,2.28
2022-10-15T01:16:50.807Z,2.17
2022-10-15T01:18:22.377Z,1.70
2022-10-15T01:19:50.514Z,2.00
2022-10-15T01:21:11.463Z,2.58
2022-10-15T01:22:23.118Z,1.55
2022-10-15T01:23:52.210Z,1.48
2022-10-15T01:25:24.399Z,10.40
2022-10-15T01:27:03.210Z,25.05
2022-10-15T01:28:42.550Z,33.10
2022-10-15T01:30:03.580Z,16.15
2022-10-15T01:31:24.095Z,9.52
2022-10-15T01:32:31.461Z,6.53
2022-10-15T01:33:49.091Z,5.30
2022-10-15T01:35:02.088Z,4.30
2022-10-15T01:36:19.087Z,4.00
2022-10-15T01:37:27.108Z,3.25
2022-10-15T01:38:49.403Z,2.97
2022-10-15T01:39:56.732Z,3.45
2022-10-15T01:41:07.208Z,2.50
2022-10-15T01:42:31.428Z,2.50
2022-10-15T01:43:45.015Z,2.28
2022-10-15T01:45:10.983Z,2.15
2022-10-15T01:46:38.939Z,2.03
2022-10-15T01:47:56.656Z,2.10
2022-10-15T01:49:01.776Z,1.98
2022-10-15T01:50:06.007Z,2.20
2022-10-15T01:51:11.038Z,2.05
2022-10-15T01:52:20.561Z,1.88
2022-10-15T01:53:27.003Z,1.60
2022-10-15T01:54:31.152Z,1.73
2022-10-15T01:55:35.672Z,1.90
2022-10-15T01:56:40.808Z,1.52
2022-10-15T01:57:44.967Z,2.17
2022-10-15T01:58:50.552Z,1.50
2022-10-15T01:59:54.238Z,3.13
2022-10-15T02:00:59.458Z,77.78
2022-10-15T02:02:02.325Z,22.45
2022-10-15T02:03:04.730Z,12.50
2022-10-15T02:04:19.499Z,40.83
2022-10-15T02:05:29.550Z,120.63
2022-10-15T02:06:39.203Z,30.67
2022-10-15T02:08:04.751Z,22.92
2022-10-15T02:09:52.073Z,17.83
2022-10-15T02:11:07.725Z,12.30
2022-10-15T02:12:20.944Z,9.57
2022-10-15T02:13:42.327Z,8.18
2022-10-15T02:15:16.329Z,6.55
2022-10-15T02:16:28.046Z,6.28
2022-10-15T02:17:45.387Z,6.88
2022-10-15T02:18:53.630Z,5.80
2022-10-15T02:20:04.732Z,5.90
2022-10-15T02:21:18.245Z,5.35
2022-10-15T02:22:30.644Z,5.00
2022-10-15T02:24:03.180Z,5.43
2022-10-15T02:25:27.773Z,5.45
2022-10-15T02:26:31.026Z,5.05
2022-10-15T02:27:34.127Z,5.60
2022-10-15T02:28:39.886Z,4.70
2022-10-15T02:29:44.427Z,4.55
2022-10-15T02:30:50.900Z,4.13
2022-10-15T02:31:56.919Z,4.60
2022-10-15T02:33:00.036Z,4.55
2022-10-15T02:34:06.803Z,4.22
2022-10-15T02:35:12.623Z,3.90
2022-10-15T02:36:19.599Z,4.10
2022-10-15T02:37:26.267Z,3.85
2022-10-15T02:38:32.684Z,3.58
2022-10-15T02:39:35.188Z,3.17
2022-10-15T02:40:41.054Z,3.38
2022-10-15T02:41:43.748Z,3.72
2022-10-15T02:42:50.835Z,3.65
2022-10-15T02:43:53.138Z,3.63
2022-10-15T02:44:55.420Z,3.22
2022-10-15T02:45:57.792Z,3.40
2022-10-15T02:47:00.883Z,3.42
2022-10-15T02:48:03.502Z,3.25
2022-10-15T02:49:05.754Z,3.47
2022-10-15T02:50:08.323Z,3.58
2022-10-15T02:51:10.672Z,4.20
2022-10-15T02:52:13.941Z,3.15
2022-10-15T02:53:17.070Z,2.97
2022-10-15T02:54:19.501Z,2.97
2022-10-15T02:55:23.202Z,2.80
2022-10-15T02:56:26.433Z,3.38
2022-10-15T02:57:28.890Z,8.20
2022-10-15T02:58:33.027Z,23.52
2022-10-15T02:59:35.346Z,20.38
2022-10-15T03:00:37.785Z,49.95
2022-10-15T03:01:40.346Z,52.17
2022-10-15T03:02:42.741Z,59.60
2022-10-15T03:03:45.414Z,34.58
2022-10-15T03:04:47.972Z,35.15
2022-10-15T03:05:50.752Z,25.75
2022-10-15T03:06:53.365Z,22.30
2022-10-15T03:07:55.750Z,19.38
2022-10-15T03:08:58.214Z,17.70
2022-10-15T03:10:00.457Z,16.35
2022-10-15T03:11:02.952Z,17.23
2022-10-15T03:12:05.607Z,16.08
2022-10-15T03:13:08.674Z,15.43
2022-10-15T03:14:19.685Z,9.35
2022-10-15T03:15:22.066Z,8.43
2022-10-15T03:16:24.558Z,6.88
2022-10-15T03:17:26.968Z,7.28
2022-10-15T03:18:29.254Z,5.50
2022-10-15T03:19:31.561Z,5.80
2022-10-15T03:20:33.897Z,5.47
2022-10-15T03:21:37.037Z,5.22
2022-10-15T03:22:45.480Z,5.05
2022-10-15T03:23:48.043Z,5.20
2022-10-15T03:24:54.722Z,5.45
2022-10-15T03:26:02.844Z,5.43
2022-10-15T03:27:05.165Z,4.38
2022-10-15T03:28:07.446Z,4.13
2022-10-15T03:29:16.394Z,4.00
2022-10-15T03:30:33.880Z,4.03
2022-10-15T03:31:36.926Z,3.90
2022-10-15T03:32:40.614Z,3.88
2022-10-15T03:33:43.168Z,3.40
2022-10-15T03:34:45.499Z,3.50
2022-10-15T03:35:50.057Z,3.60
2022-10-15T03:36:52.389Z,3.28
2022-10-15T03:37:54.817Z,3.20
2022-10-15T03:38:57.540Z,3.30
2022-10-15T03:39:59.865Z,2.85
2022-10-15T03:41:03.216Z,3.53
2022-10-15T03:42:10.417Z,3.30
2022-10-15T03:43:23.026Z,3.22
2022-10-15T03:44:25.618Z,4.10
2022-10-15T03:45:38.749Z,78.40
2022-10-15T03:46:53.867Z,58.80
2022-10-15T03:47:58.894Z,29.85
2022-10-15T03:49:03.986Z,44.20
2022-10-15T03:50:06.638Z,33.05
2022-10-15T03:51:09.471Z,22.00
2022-10-15T03:52:11.854Z,14.70
2022-10-15T03:53:15.144Z,10.95
2022-10-15T03:54:17.642Z,9.23
2022-10-15T03:55:25.867Z,8.65
2022-10-15T03:56:28.336Z,9.73
2022-10-15T03:57:42.139Z,8.70
2022-10-15T03:58:44.503Z,9.18
2022-10-15T03:59:49.948Z,8.75
2022-10-15T04:00:53.466Z,8.50
2022-10-15T04:01:55.858Z,7.32
2022-10-15T04:02:58.246Z,7.63
2022-10-15T04:04:02.798Z,6.95
2022-10-15T04:05:05.622Z,8.10
2022-10-15T04:06:08.531Z,6.50
2022-10-15T04:07:11.470Z,7.72
2022-10-15T04:08:13.917Z,7.15
2022-10-15T04:09:16.536Z,6.90
2022-10-15T04:10:19.034Z,7.00
2022-10-15T04:11:21.578Z,5.53
2022-10-15T04:12:32.368Z,6.05
2022-10-15T04:13:34.698Z,6.38
2022-10-15T04:14:37.066Z,6.07
2022-10-15T04:15:39.932Z,5.47
2022-10-15T04:16:45.473Z,5.45
2022-10-15T04:17:56.262Z,5.57
2022-10-15T04:19:01.276Z,5.80
2022-10-15T04:20:04.967Z,5.47
2022-10-15T04:21:07.334Z,5.07
2022-10-15T04:22:09.794Z,4.80
2022-10-15T04:23:18.561Z,5.55
2022-10-15T04:24:40.828Z,5.82
2022-10-15T04:25:43.575Z,4.95
2022-10-15T04:26:46.655Z,5.25
2022-10-15T04:27:49.207Z,4.78
2022-10-15T04:28:53.773Z,4.90
2022-10-15T04:29:58.011Z,4.97
2022-10-15T04:31:01.385Z,4.47
2022-10-15T04:32:04.975Z,4.88
2022-10-15T04:33:07.297Z,7.32
2022-10-15T04:34:10.229Z,55.25
2022-10-15T04:35:12.552Z,22.15
2022-10-15T04:36:41.172Z,44.50
2022-10-15T04:38:09.735Z,29.27
2022-10-15T04:39:34.368Z,16.40
2022-10-15T04:40:36.808Z,10.60
2022-10-15T04:41:39.075Z,9.40
2022-10-15T04:42:57.931Z,7.95
2022-10-15T04:44:00.314Z,7.57
2022-10-15T04:45:04.696Z,7.30
2022-10-15T04:46:08.755Z,6.18
2022-10-15T04:47:11.383Z,6.97
2022-10-15T04:48:42.082Z,6.00
2022-10-15T04:49:47.330Z,5.70
2022-10-15T04:51:12.806Z,5.38
2022-10-15T04:52:34.967Z,4.82
2022-10-15T04:53:42.719Z,4.63
2022-10-15T04:54:45.431Z,4.45
2022-10-15T04:55:48.251Z,5.55
2022-10-15T04:56:50.858Z,4.63
2022-10-15T04:57:54.396Z,4.57
2022-10-15T04:59:08.119Z,4.18
2022-10-15T05:00:19.278Z,4.35
2022-10-15T05:01:41.889Z,4.07
2022-10-15T05:02:45.621Z,4.03
2022-10-15T05:04:01.333Z,4.70
2022-10-15T05:05:05.679Z,4.10
2022-10-15T05:06:13.288Z,3.72
2022-10-15T05:07:15.649Z,3.63
2022-10-15T05:08:18.255Z,3.80
2022-10-15T05:09:37.282Z,3.33
2022-10-15T05:10:39.888Z,3.90
2022-10-15T05:11:44.124Z,4.47
2022-10-15T05:12:50.295Z,9.48
2022-10-15T05:14:03.017Z,94.32
2022-10-15T05:15:07.854Z,70.50
2022-10-15T05:16:15.150Z,51.33
2022-10-15T05:17:17.624Z,38.03
2022-10-15T05:18:20.949Z,25.83
2022-10-15T05:19:27.144Z,19.58
2022-10-15T05:20:29.729Z,14.68
2022-10-15T05:21:34.288Z,11.70
2022-10-15T05:22:40.109Z,10.82
2022-10-15T05:23:43.863Z,10.02
2022-10-15T05:24:54.679Z,9.13
2022-10-15T05:26:04.083Z,7.22
2022-10-15T05:27:06.495Z,7.63
2022-10-15T05:28:10.439Z,7.03
2022-10-15T05:29:13.698Z,7.72
2022-10-15T05:30:16.047Z,7.25
2022-10-15T05:31:30.784Z,6.93
2022-10-15T05:32:40.155Z,6.50
2022-10-15T05:33:47.544Z,5.97
2022-10-15T05:34:49.918Z,6.00
2022-10-15T05:35:52.292Z,5.72
2022-10-15T05:36:56.907Z,5.97
2022-10-15T05:37:59.264Z,6.03
2022-10-15T05:39:03.117Z,5.35
2022-10-15T05:40:10.287Z,5.20
2022-10-15T05:41:12.794Z,5.10
2022-10-15T05:42:15.195Z,5.22
2022-10-15T05:43:25.520Z,5.45
2022-10-15T05:44:28.039Z,5.18
2022-10-15T05:45:30.365Z,3.63
2022-10-15T05:46:38.719Z,4.55
2022-10-15T05:47:41.043Z,4.03
2022-10-15T05:48:56.591Z,4.03
2022-10-15T05:49:58.975Z,3.67
2022-10-15T05:51:08.841Z,4.93
2022-10-15T05:52:11.199Z,4.45
2022-10-15T05:53:36.994Z,4.03
2022-10-15T05:54:43.050Z,3.05
2022-10-15T05:55:45.413Z,3.58
2022-10-15T05:56:47.708Z,3.90
2022-10-15T05:57:49.978Z,3.53
2022-10-15T05:58:52.360Z,45.28
2022-10-15T05:59:57.509Z,20.13
2022-10-15T06:01:01.848Z,25.17
2022-10-15T06:02:04.105Z,24.58
2022-10-15T06:03:06.695Z,20.70
2022-10-15T06:04:09.472Z,16.13
2022-10-15T06:05:12.552Z,14.00
2022-10-15T06:06:23.140Z,12.13
2022-10-15T06:07:25.830Z,11.73
2022-10-15T06:08:29.808Z,10.57
2022-10-15T06:09:32.318Z,10.90
2022-10-15T06:10:37.806Z,11.23
2022-10-15T06:11:40.201Z,11.70
2022-10-15T06:12:50.668Z,11.77
2022-10-15T06:13:53.214Z,10.43
2022-10-15T06:14:55.569Z,10.30
2022-10-15T06:15:58.328Z,13.65
2022-10-15T06:17:00.826Z,18.33
2022-10-15T06:18:06.665Z,55.22
2022-10-15T06:19:09.701Z,40.70
2022-10-15T06:20:13.215Z,36.20
2022-10-15T06:21:15.965Z,32.83
2022-10-15T06:22:18.719Z,30.45
2022-10-15T06:23:21.909Z,23.77
2022-10-15T06:24:24.938Z,23.02
2022-10-15T06:25:28.074Z,20.55
2022-10-15T06:26:30.748Z,20.20
2022-10-15T06:27:33.795Z,19.95
2022-10-15T06:28:38.231Z,17.60
2022-10-15T06:29:41.500Z,16.02
2022-10-15T06:30:44.456Z,16.52
2022-10-15T06:31:47.084Z,15.95
2022-10-15T06:32:51.325Z,16.08
2022-10-15T06:33:53.987Z,14.95
2022-10-15T06:34:56.436Z,16.27
2022-10-15T06:36:04.433Z,16.55
2022-10-15T06:37:06.960Z,15.65
2022-10-15T06:38:09.608Z,15.90
2022-10-15T06:39:12.153Z,16.58
2022-10-15T06:40:15.859Z,14.77
2022-10-15T06:41:19.539Z,15.15
2022-10-15T06:42:22.031Z,14.40
2022-10-15T06:43:24.793Z,13.57
2022-10-15T06:44:27.173Z,11.50
2022-10-15T06:45:29.526Z,12.73
2022-10-15T06:46:31.928Z,10.93
2022-10-15T06:47:34.470Z,11.52
2022-10-15T06:48:37.050Z,50.03
2022-10-15T06:49:39.409Z,28.90
2022-10-15T06:50:41.882Z,44.17
2022-10-15T06:51:44.290Z,34.75
2022-10-15T06:52:46.762Z,26.20
2022-10-15T06:53:49.117Z,21.77
2022-10-15T06:54:51.926Z,17.40
2022-10-15T06:56:02.023Z,18.20
2022-10-15T06:57:09.540Z,16.20
2022-10-15T06:58:11.984Z,15.80
2022-10-15T06:59:14.414Z,14.60
2022-10-15T07:00:17.964Z,13.35
2022-10-15T07:01:22.883Z,14.38
2022-10-15T07:02:25.700Z,13.73
2022-10-15T07:03:29.347Z,13.88
2022-10-15T07:04:31.742Z,14.32
2022-10-15T07:05:35.589Z,14.07
2022-10-15T07:06:38.024Z,13.45
2022-10-15T07:07:40.888Z,12.98
2022-10-15T07:08:43.381Z,13.63
2022-10-15T07:09:47.376Z,13.77
2022-10-15T07:10:49.688Z,13.65
2022-10-15T07:11:52.744Z,13.82
2022-10-15T07:12:55.206Z,14.23
2022-10-15T07:13:58.138Z,13.55
2022-10-15T07:15:00.475Z,13.70
2022-10-15T07:16:07.392Z,13.68
2022-10-15T07:17:09.696Z,13.98
2022-10-15T07:18:12.051Z,13.07
2022-10-15T07:19:14.951Z,13.77
2022-10-15T07:20:21.920Z,13.40
2022-10-15T07:21:26.553Z,13.23
2022-10-15T07:22:28.845Z,13.65
2022-10-15T07:23:31.784Z,14.57
2022-10-15T07:24:34.191Z,13.85
2022-10-15T07:25:36.550Z,13.43
2022-10-15T07:26:39.147Z,13.48
2022-10-15T07:27:41.470Z,12.80
2022-10-15T07:28:44.029Z,13.07
2022-10-15T07:29:46.762Z,12.73
2022-10-15T07:30:49.075Z,12.50
2022-10-15T07:31:51.439Z,13.88
2022-10-15T07:32:57.084Z,13.80
2022-10-15T07:33:59.527Z,12.93
2022-10-15T07:35:02.086Z,13.27
2022-10-15T07:36:07.994Z,13.38
2022-10-15T07:37:10.447Z,12.70
2022-10-15T07:38:13.009Z,12.60
2022-10-15T07:39:17.845Z,12.93
2022-10-15T07:40:20.750Z,12.77
2022-10-15T07:41:23.588Z,13.10
2022-10-15T07:42:26.684Z,13.13
2022-10-15T07:43:29.338Z,13.70
2022-10-15T07:44:31.865Z,13.73
2022-10-15T07:45:36.039Z,13.40
2022-10-15T07:46:38.483Z,12.38
2022-10-15T07:47:42.015Z,12.32
2022-10-15T07:48:48.334Z,12.50
2022-10-15T07:49:50.734Z,10.82
2022-10-15T07:50:57.247Z,11.70
2022-10-15T07:51:59.886Z,11.77
2022-10-15T07:53:04.584Z,12.57
2022-10-15T07:54:06.851Z,12.30
2022-10-15T07:55:09.596Z,13.13
2022-10-15T07:56:13.105Z,12.23
2022-10-15T07:57:15.384Z,12.52
2022-10-15T07:58:18.237Z,12.25
2022-10-15T07:59:20.852Z,11.77
2022-10-15T08:00:23.260Z,11.98
2022-10-15T08:01:25.810Z,11.73
2022-10-15T08:02:28.226Z,12.23
2022-10-15T08:03:30.964Z,12.48
2022-10-15T08:04:35.010Z,11.52
2022-10-15T08:05:37.588Z,11.65
2022-10-15T08:06:40.176Z,11.55
2022-10-15T08:07:42.947Z,12.05
2022-10-15T08:08:47.839Z,12.63
2022-10-15T08:09:50.567Z,11.65
2022-10-15T08:10:54.009Z,12.45
2022-10-15T08:11:56.745Z,11.98
2022-10-15T08:12:59.191Z,12.15
2022-10-15T08:14:03.648Z,11.82
2022-10-15T08:15:06.576Z,11.65
2022-10-15T08:16:10.209Z,11.80
2022-10-15T08:17:12.572Z,12.38
2022-10-15T08:18:14.919Z,11.38
2022-10-15T08:19:17.794Z,11.27
2022-10-15T08:20:20.966Z,11.95
2022-10-15T08:21:23.615Z,11.98
2022-10-15T08:22:26.307Z,10.80
2022-10-15T08:23:31.669Z,11.48
2022-10-15T08:24:34.070Z,11.20
2022-10-15T08:25:36.360Z,12.23
2022-10-15T08:26:38.690Z,11.48
2022-10-15T08:27:40.983Z,7.65
2022-10-15T08:28:43.361Z,37.72
2022-10-15T08:29:46.501Z,33.30
2022-10-15T08:30:48.856Z,23.95
2022-10-15T08:31:51.298Z,32.50
2022-10-15T08:32:58.999Z,30.63
2022-10-15T08:34:02.495Z,32.00
2022-10-15T08:35:05.078Z,33.75
2022-10-15T08:36:08.516Z,24.02
2022-10-15T08:37:10.837Z,22.52
2022-10-15T08:38:16.113Z,17.83
2022-10-15T08:39:21.417Z,21.42
2022-10-15T08:40:23.740Z,21.50
2022-10-15T08:41:44.927Z,18.20
2022-10-15T08:42:47.418Z,15.55
2022-10-15T08:43:50.015Z,17.80
2022-10-15T08:45:02.302Z,16.48
2022-10-15T08:47:39.268Z,28.13
2022-10-15T08:48:47.595Z,30.80
2022-10-15T08:49:54.030Z,18.73
2022-10-15T08:51:10.500Z,15.82
2022-10-15T08:52:36.095Z,17.13
2022-10-15T08:53:45.644Z,16.98
2022-10-15T08:54:48.211Z,15.82
2022-10-15T08:55:56.744Z,17.52
2022-10-15T08:57:18.206Z,16.35
2022-10-15T08:58:26.588Z,18.15
2022-10-15T08:59:42.179Z,19.10
2022-10-15T09:00:51.870Z,19.25
2022-10-15T09:02:17.455Z,18.08
2022-10-15T09:03:42.002Z,18.83
2022-10-15T09:05:22.269Z,18.33
2022-10-15T09:06:30.507Z,18.63
2022-10-15T09:07:39.681Z,17.98
2022-10-15T09:09:06.343Z,18.20
2022-10-15T09:10:30.584Z,17.52
2022-10-15T09:11:55.860Z,17.23
2022-10-15T09:13:04.472Z,18.08
2022-10-15T09:14:13.849Z,17.80
2022-10-15T09:15:22.554Z,17.88
2022-10-15T09:16:39.670Z,17.55
2022-10-15T09:17:47.204Z,17.35
2022-10-15T09:18:52.433Z,18.65
2022-10-15T09:19:57.064Z,18.80
2022-10-15T09:21:02.160Z,14.75
2022-10-15T09:22:04.481Z,11.65
2022-10-15T09:23:17.154Z,18.73
2022-10-15T09:24:22.898Z,13.77
2022-10-15T09:25:31.909Z,12.75
2022-10-15T09:26:57.073Z,11.45
2022-10-15T09:28:10.378Z,14.18
2022-10-15T09:29:19.861Z,15.63
2022-10-15T09:30:45.015Z,15.20
2022-10-15T09:31:55.412Z,14.65
2022-10-15T09:33:48.107Z,16.45
2022-10-15T09:35:00.288Z,17.00
2022-10-15T09:36:25.041Z,17.17
2022-10-15T09:38:06.307Z,16.05
2022-10-15T09:39:23.209Z,16.23
2022-10-15T09:40:37.715Z,17.25
2022-10-15T09:42:08.937Z,16.35
2022-10-15T09:43:13.415Z,17.08
2022-10-15T09:44:21.048Z,18.20
2022-10-15T09:45:25.217Z,16.95
2022-10-15T09:46:28.301Z,16.90
2022-10-15T09:47:34.002Z,18.17
2022-10-15T09:48:47.056Z,15.57
2022-10-15T09:49:49.498Z,16.38
2022-10-15T09:51:03.880Z,15.93
2022-10-15T09:52:27.144Z,15.88
2022-10-15T09:54:03.496Z,15.57
2022-10-15T09:55:47.755Z,16.42
2022-10-15T09:56:55.411Z,18.92
2022-10-15T09:58:03.175Z,18.00
2022-10-15T09:59:08.848Z,11.05
2022-10-15T10:00:13.538Z,9.32
2022-10-15T10:01:21.222Z,9.98
2022-10-15T10:02:25.976Z,11.15
2022-10-15T10:03:35.107Z,10.50
2022-10-15T10:04:38.475Z,13.10
2022-10-15T10:05:41.785Z,22.73
2022-10-15T10:06:51.392Z,14.52
2022-10-15T10:08:09.060Z,13.48
2022-10-15T10:09:20.656Z,14.15
2022-10-15T10:10:28.322Z,12.25
2022-10-15T10:11:48.302Z,9.13
2022-10-15T10:12:51.536Z,7.40
2022-10-15T10:14:00.664Z,7.18
2022-10-15T10:15:26.195Z,7.35
2022-10-15T10:16:30.122Z,7.13
2022-10-15T10:17:35.853Z,6.10
2022-10-15T10:18:38.871Z,5.75
2022-10-15T10:19:41.463Z,5.97
2022-10-15T10:20:59.093Z,6.95
2022-10-15T10:22:17.617Z,7.28
2022-10-15T10:23:25.237Z,7.82
2022-10-15T10:24:31.648Z,10.75
2022-10-15T10:25:44.692Z,8.55
2022-10-15T10:26:48.089Z,12.10
2022-10-15T10:27:50.487Z,8.48
2022-10-15T10:28:57.046Z,10.43
2022-10-15T10:30:07.629Z,9.30
2022-10-15T10:31:10.800Z,8.82
2022-10-15T10:32:23.413Z,11.82
2022-10-15T10:33:35.425Z,12.15
2022-10-15T10:34:37.718Z,11.48
2022-10-15T10:35:52.673Z,12.52
2022-10-15T10:36:55.614Z,11.00
2022-10-15T10:37:57.945Z,11.27
2022-10-15T10:39:25.093Z,9.25
2022-10-15T10:40:34.923Z,12.27
2022-10-15T10:42:01.893Z,11.45
2022-10-15T10:43:16.612Z,10.70
2022-10-15T10:44:38.207Z,8.25
2022-10-15T10:47:10.999Z,6.75
2022-10-15T10:48:23.606Z,5.88
2022-10-15T10:49:53.347Z,6.97
2022-10-15T10:51:26.753Z,5.75
2022-10-15T10:52:36.716Z,6.32
2022-10-15T10:54:05.233Z,5.20
2022-10-15T10:55:22.286Z,5.20
2022-10-15T10:56:30.814Z,5.85
2022-10-15T10:57:43.909Z,6.15
2022-10-15T10:58:46.227Z,6.35
2022-10-15T10:59:51.788Z,5.82
2022-10-15T11:00:55.475Z,5.60
2022-10-15T11:01:58.105Z,4.72
2022-10-15T11:03:00.688Z,6.65
2022-10-15T11:04:04.237Z,4.93
2022-10-15T11:05:06.887Z,5.03
2022-10-15T11:06:33.173Z,4.78
2022-10-15T11:08:07.731Z,6.78
2022-10-15T11:09:52.308Z,5.97
2022-10-15T11:11:21.226Z,4.75
2022-10-15T11:12:45.062Z,7.00
2022-10-15T11:14:17.427Z,7.25
2022-10-15T11:15:28.510Z,6.15
2022-10-15T11:17:08.618Z,4.75
2022-10-15T11:18:41.352Z,5.78
2022-10-15T11:20:26.856Z,5.18
2022-10-15T11:22:03.074Z,6.75
2022-10-15T11:23:32.922Z,7.68
2022-10-15T11:24:55.717Z,7.15
2022-10-15T11:27:10.576Z,7.00
2022-10-15T11:35:51.419Z,6.95
2022-10-15T11:37:30.836Z,5.15
2022-10-15T11:39:13.841Z,5.20
2022-10-15T11:40:32.364Z,9.07
2022-10-15T11:41:49.097Z,4.95
2022-10-15T11:42:55.194Z,10.10
2022-10-15T11:44:21.864Z,5.78
2022-10-15T11:45:56.632Z,10.77
2022-10-15T11:47:03.869Z,6.32
2022-10-15T11:48:09.943Z,4.68
2022-10-15T11:49:24.969Z,13.55
2022-10-15T11:50:34.873Z,10.23
2022-10-15T11:52:13.531Z,7.10
2022-10-15T11:53:34.482Z,4.15
2022-10-15T11:54:41.491Z,3.55
2022-10-15T11:56:02.128Z,2.13
2022-10-15T11:57:08.152Z,2.33
2022-10-15T11:58:24.108Z,2.67
2022-10-15T11:59:37.844Z,3.40
2022-10-15T12:00:49.669Z,2.35
2022-10-15T12:02:04.950Z,2.60
2022-10-15T12:03:28.937Z,3.05
2022-10-15T12:04:46.093Z,3.25
2022-10-15T12:05:54.994Z,2.88
2022-10-15T12:07:01.360Z,2.05
2022-10-15T12:09:17.159Z,2.53
2022-10-15T12:10:53.248Z,1.65
2022-10-15T12:12:05.744Z,1.92
2022-10-15T12:13:29.920Z,2.60
2022-10-15T12:14:38.693Z,1.90
2022-10-15T12:16:08.739Z,2.47
2022-10-15T12:17:30.737Z,3.47
2022-10-15T12:18:32.971Z,5.00
2022-10-15T12:20:01.290Z,3.63
2022-10-15T12:21:03.714Z,4.45
2022-10-15T12:22:11.516Z,5.40
2022-10-15T12:23:26.452Z,3.42
2022-10-15T12:24:39.479Z,13.30
2022-10-15T12:25:44.370Z,7.25
2022-10-15T12:26:46.655Z,5.50
2022-10-15T12:28:00.379Z,4.75
2022-10-15T12:29:07.035Z,4.88
2022-10-15T12:30:11.361Z,3.67
2022-10-15T12:31:13.696Z,4.20
2022-10-15T12:32:27.529Z,4.25
2022-10-15T12:33:34.596Z,4.10
2022-10-15T12:34:42.227Z,4.40
2022-10-15T12:35:52.902Z,3.97
2022-10-15T12:37:15.802Z,4.43
2022-10-15T12:38:30.871Z,4.60
2022-10-15T12:39:51.147Z,3.80
2022-10-15T12:41:01.289Z,4.72
2022-10-15T12:42:04.248Z,3.80
2022-10-15T12:43:15.778Z,3.97
2022-10-15T12:44:30.104Z,4.05
2022-10-15T12:45:40.461Z,4.30
2022-10-15T12:46:43.237Z,3.80
2022-10-15T12:47:53.920Z,4.32
2022-10-15T12:48:58.067Z,4.68
2022-10-15T12:50:05.118Z,4.40
2022-10-15T12:51:16.344Z,4.50
2022-10-15T12:53:43.749Z,4.38
2022-10-15T12:54:46.455Z,4.50
2022-10-15T12:56:22.370Z,4.13
2022-10-15T12:57:34.502Z,4.20
2022-10-15T12:58:46.663Z,3.80
2022-10-15T12:59:56.376Z,4.32
2022-10-15T13:01:04.194Z,15.90
2022-10-15T13:02:43.498Z,22.00
2022-10-15T13:03:52.651Z,15.25
2022-10-15T13:04:55.264Z,13.88
2022-10-15T13:06:13.968Z,16.38
2022-10-15T13:07:16.343Z,9.57
2022-10-15T13:08:24.451Z,8.60
2022-10-15T13:09:30.799Z,6.65
2022-10-15T13:10:40.342Z,6.15
2022-10-15T13:11:54.270Z,6.47
2022-10-15T13:12:59.274Z,4.88
2022-10-15T13:14:09.303Z,4.47
2022-10-15T13:15:14.635Z,5.07
2022-10-15T13:16:17.014Z,4.25
2022-10-15T13:17:21.716Z,4.18
2022-10-15T13:18:25.847Z,6.28
2022-10-15T13:19:29.808Z,6.90
2022-10-15T13:20:36.911Z,6.32
2022-10-15T13:21:52.599Z,7.30
2022-10-15T13:23:29.078Z,7.95
2022-10-15T13:24:45.511Z,5.95
2022-10-15T13:25:50.835Z,5.88
2022-10-15T13:26:56.356Z,19.58
2022-10-15T13:27:58.642Z,15.30
2022-10-15T13:29:00.997Z,9.02
2022-10-15T13:30:12.823Z,9.23
2022-10-15T13:31:17.896Z,7.82
2022-10-15T13:32:20.384Z,10.88
2022-10-15T13:33:22.843Z,10.85
2022-10-15T13:34:26.787Z,9.23
2022-10-15T13:35:32.977Z,10.07
2022-10-15T13:36:35.694Z,9.18
2022-10-15T13:37:41.027Z,8.55
2022-10-15T13:38:47.265Z,8.05
2022-10-15T13:39:52.207Z,7.57
2022-10-15T13:40:54.537Z,7.80
2022-10-15T13:42:08.432Z,7.97
2022-10-15T13:43:23.697Z,7.70
2022-10-15T13:44:26.027Z,7.45
2022-10-15T13:45:29.471Z,6.97
2022-10-15T13:46:36.327Z,7.57
2022-10-15T13:47:42.076Z,6.88
2022-10-15T13:49:51.656Z,7.35
2022-10-15T13:50:57.340Z,7.35
2022-10-15T13:51:59.615Z,6.88
2022-10-15T13:53:18.771Z,7.00
2022-10-15T13:54:28.825Z,6.65
2022-10-15T13:55:36.211Z,6.72
2022-10-15T13:56:47.886Z,7.13
2022-10-15T13:58:15.895Z,6.97
2022-10-15T13:59:20.118Z,7.45
2022-10-15T14:00:26.382Z,6.85
2022-10-15T14:01:30.109Z,6.72
2022-10-15T14:02:32.432Z,6.75
2022-10-15T14:03:36.461Z,7.15
2022-10-15T14:04:40.818Z,7.38
2022-10-15T14:05:45.402Z,7.57
2022-10-15T14:07:20.516Z,6.78
2022-10-15T14:08:26.663Z,6.97
2022-10-15T14:09:37.618Z,6.50
2022-10-15T14:10:39.936Z,6.35
2022-10-15T14:11:42.263Z,7.25
2022-10-15T14:12:44.612Z,7.43
2022-10-15T14:13:52.514Z,7.03
2022-10-15T14:14:54.812Z,6.70
2022-10-15T14:16:22.383Z,6.63
2022-10-15T14:17:26.712Z,6.80
2022-10-15T14:18:36.773Z,6.55
2022-10-15T14:19:40.118Z,6.45
2022-10-15T14:20:49.991Z,7.03
2022-10-15T14:21:53.061Z,6.68
2022-10-15T14:22:55.606Z,6.38
2022-10-15T14:24:22.018Z,6.43
2022-10-15T14:25:26.155Z,7.15
2022-10-15T14:26:28.528Z,7.32
2022-10-15T14:27:30.850Z,6.78
2022-10-15T14:28:34.882Z,6.82
2022-10-15T14:29:41.557Z,6.20
2022-10-15T14:30:44.212Z,6.88
2022-10-15T14:31:48.459Z,5.93
2022-10-15T14:32:54.667Z,25.20
2022-10-15T14:33:56.968Z,14.95
2022-10-15T14:35:01.219Z,46.92
2022-10-15T14:36:11.615Z,41.17
2022-10-15T14:37:36.997Z,19.30
2022-10-15T14:38:40.365Z,14.85
2022-10-15T14:39:47.354Z,14.75
2022-10-15T14:41:07.402Z,9.90
2022-10-15T14:42:27.815Z,20.65
2022-10-15T14:43:34.078Z,10.05
2022-10-15T14:44:48.225Z,6.70
2022-10-15T14:45:53.259Z,7.22
2022-10-15T14:47:03.300Z,7.65
2022-10-15T14:48:24.452Z,7.07
2022-10-15T14:49:33.010Z,7.88
2022-10-15T14:50:40.707Z,7.53
2022-10-15T14:51:43.187Z,6.93
2022-10-15T14:52:49.618Z,6.82
2022-10-15T14:53:53.899Z,7.32
2022-10-15T14:55:17.797Z,7.57
2022-10-15T14:56:23.728Z,7.03
2022-10-15T14:57:30.396Z,7.57
2022-10-15T14:58:32.939Z,7.47
2022-10-15T14:59:38.018Z,7.80
2022-10-15T15:00:47.056Z,7.05
2022-10-15T15:02:02.952Z,7.43
2022-10-15T15:03:07.123Z,6.97
2022-10-15T15:04:33.053Z,8.00
2022-10-15T15:05:49.917Z,7.38
2022-10-15T15:06:52.259Z,6.93
2022-10-15T15:07:56.942Z,6.78
2022-10-15T15:08:59.370Z,6.72
2022-10-15T15:10:01.877Z,6.65
2022-10-15T15:11:06.709Z,7.00
2022-10-15T15:12:20.762Z,7.30
2022-10-15T15:13:27.091Z,6.65
2022-10-15T15:14:29.490Z,6.78